Aérodrome :
LOGIN :

S'inscrire | Disclaimer

   EN    FR    IT 

 










Légende :    VFR   VFR Marginal   IFR   IFR Intensif   IFR Très Intensif
Visi : 
Plafond : 
>= 8 km
>= 3000ft
5 à 8 km
1000 à 3000 ft
1500m à 5 km
500 à 1000 ft
800 à 1500m
200 à 500 ft
< 800m
< 200 ft
Symboles :   Orages  Brouillard  Fortes neiges  Fortes précipitations  Vent > 20 kt
SIGMETs :   Divers  Orages  Givrage  Turbulence  Onde Orograph.  Cendres Volcan.







- Altitude de l'aérodrome : 3 ft
- Code IATA : DHR


EHKD - Den Helder De Kooy

DERNIER METAR :
  • 240825Z AUTO 12007KT 080V150 9999 NCD 27/19 Q1014 BLU 14008KT CAVOK

METARs EXPIRÉS :
  • 240755Z AUTO 12005KT 090V160 9999 FEW030CB 26/19 Q1014 BLU 14008KT CAVOK
  • 240725Z AUTO 14003KT 070V180 9999 FEW028CB OVC160 25/18 Q1014 BLU 14008KT CAVOK
  • 240655Z AUTO 13004KT 090V170 9999 FEW026CB 25/19 Q1013 BLU 14008KT CAVOK
  • 240625Z AUTO 11007KT 070V140 9999 NCD 24/19 Q1013 BLU 12008KT CAVOK
  • 240555Z AUTO 10007KT 070V140 9999 NCD 23/19 Q1013 BLU 12008KT CAVOK

TAF TAF EHKD
Valide du 24 à 05h jusqu'au 24 à 17h UTC


240438Z 2405/2417 10008KT CAVOK
BECMG 2406/2408 14010KT
BECMG 2415/2418 25007KT
Pas de NOTAMs connus pour ce terrain.



MET'MAP, la Météo Aéronautique d'un coup d'oeil ! - Copyright ORBIFLY Décembre 2007 - Disclaimer

ORBIFLY MET'MAP TEAM :

Programmation & Développement : Alexandra Zaïnal
Conception & Développement : Baudouin d'Aumeries
Co-Programmation & Développement : Marc-Olivier Méhu
Soutien technique & logistique : Manuel Goepfert

Contact : metmap@orbifly.com




SOURCES & CREDITS :

   NOAA